• Join FlightAware (Why Join?)
  • Login
  • US Flag 
10:25AM EST


 

Airport Tracker/Info


-or-


 

Live Flight TrackerFlight Track Log ✈ SWA2236 ✈ 09-Nov-2013 ✈ KBNA - KPHX

Flight Track Log - Related Links

Times and Time Zones

All times are in EST time to prevent confusion due to time zone crossing. See the SWA2236 flight status page for this flight to view local times or setup timezone preferences in your user account.

Time Position Orientation Groundspeed Altitude Reporting Facility
EST Latitude Longitude Course Direction KTS MPH feet Rate Location/Type
10:28AM 36.0833 -86.7000 219° Southwest 149 171 2,400  Level Nashville TRACON
10:29AM 36.1000 -86.7667 287° West 218 251 4,000 2,100 Climbing Nashville TRACON
10:30AM 36.1167 -86.8500 284° West 266 306 6,600 3,240 Climbing Nashville TRACON
10:31AM 36.1633 -86.9489 300° West 265 305 11,100 2,880 Climbing Memphis Center
10:32AM 36.2022 -87.0497 296° West 319 367 13,100 2,280 Climbing Memphis Center
10:33AM 36.1226 -87.4640 270° West  Level Estimated
10:33AM 36.2458 -87.1600 296° West 345 397 15,900  Level Memphis Center
10:34AM 36.2814 -87.2806 290° West 363 418 18,400 2,460 Climbing Memphis Center
10:35AM 36.3011 -87.4122 281° West 380 437 21,000 2,340 Climbing Memphis Center
10:36AM 36.3161 -87.5461 278° West 387 445 23,300 1,920 Climbing Memphis Center
10:38AM 36.3000 -87.7392 270° West  Level FlightAware Approximate
10:39AM 36.3097 -87.9639 270° West 402 463 29,100  Level Memphis Center
10:40AM 36.3144 -88.1236 272° West 396 456 31,600 1,980 Climbing Memphis Center
10:41AM 36.3167 -88.2400 271° West 388 447 33,200 1,500 Climbing Memphis Center
10:42AM 36.3197 -88.3700 272° West 381 438 34,700 1,500 Climbing Memphis Center
10:43AM 36.3231 -88.5272 272° West 380 437 36,300 1,080 Climbing Memphis Center
10:44AM 36.3256 -88.6553 271° West 375 432 37,000 300 Climbing Memphis Center
10:45AM 36.3278 -88.7806 271° West 366 421 37,000  Level Memphis Center
10:46AM 36.3303 -88.9069 271° West 366 421 37,000  Level Memphis Center
10:47AM 36.3322 -89.0325 271° West 364 419 37,000  Level Memphis Center
10:48AM 36.3339 -89.1600 271° West 367 422 37,000  Level Memphis Center
10:49AM 36.3367 -89.2972 271° West 367 422 37,000  Level Memphis Center
10:50AM 36.3386 -89.4250 271° West 369 425 37,000  Level Memphis Center
10:52AM 36.3392 -89.5508 270° West 369 425 37,000 180 Level Memphis Center
10:53AM 36.3411 -89.6747 271° West 362 417 37,400 300 Climbing Memphis Center
10:54AM 36.3431 -89.9231 271° West 361 415 38,000 180 Climbing Kansas City Center
10:55AM 36.3444 -90.0483 271° West 362 417 38,000  Level Kansas City Center
10:57AM 36.3447 -90.1736 270° West 363 418 38,000  Level Kansas City Center
10:58AM 36.3447 -90.2981 270° West 362 417 38,000  Level Kansas City Center
10:59AM 36.3475 -90.4203 272° West 358 412 38,000  Level Kansas City Center
11:00AM 36.3475 -90.5683 270° West 357 411 38,000  Level Kansas City Center
11:01AM 36.3483 -90.7161 270° West 357 411 38,000  Level Memphis Center
11:02AM 36.3489 -90.8406 270° West 360 414 38,000  Level Memphis Center
11:03AM 36.3483 -90.9636 270° West 358 412 38,000  Level Memphis Center
11:04AM 36.3489 -91.0889 270° West 362 417 38,000  Level Memphis Center
11:05AM 36.3489 -91.2142 270° West 362 417 38,000  Level Memphis Center
11:06AM 36.3494 -91.3394 270° West 364 419 38,000  Level Memphis Center
11:07AM 36.3481 -91.4656 269° West 365 420 38,000  Level Memphis Center
11:08AM 36.3483 -91.6175 270° West 367 422 38,000  Level Memphis Center
11:09AM 36.3472 -91.7464 269° West 371 427 38,000  Level Memphis Center
11:10AM 36.3453 -91.8581 269° West 369 425 38,000  Level Memphis Center
11:11AM 36.3444 -91.9833 270° West 367 422 38,000  Level Memphis Center
11:12AM 36.3428 -92.1342 269° West 366 421 38,000  Level Memphis Center
11:13AM 36.3422 -92.2597 270° West 366 421 38,000  Level Memphis Center
11:14AM 36.3403 -92.3844 269° West 365 420 38,000  Level Memphis Center
11:15AM 36.3394 -92.5092 270° West 364 419 38,000  Level Memphis Center
11:16AM 36.3381 -92.6325 269° West 363 418 38,000  Level Memphis Center
11:17AM 36.3358 -92.7581 269° West 364 419 38,000  Level Memphis Center
11:18AM 36.3347 -92.9106 270° West 368 423 38,000  Level Memphis Center
11:19AM 36.3322 -93.0383 269° West 372 428 38,000  Level Memphis Center
11:20AM 36.3294 -93.1639 268° West 369 425 38,000  Level Memphis Center
11:21AM 36.3272 -93.2928 269° West 374 430 38,000  Level Memphis Center
11:22AM 36.3253 -93.4183 269° West 370 426 38,000  Level Memphis Center
11:23AM 36.3219 -93.5453 268° West 370 426 38,000  Level Memphis Center
11:24AM 36.3183 -93.6967 268° West 368 423 38,000  Level Memphis Center
11:25AM 36.3156 -93.8111 268° West 368 423 38,000  Level Memphis Center
11:27AM 36.3122 -93.9383 268° West 369 425 38,000  Level Memphis Center
11:28AM 36.3097 -94.0661 269° West 370 426 38,000  Level Memphis Center
11:29AM 36.3058 -94.2200 268° West 372 428 38,000  Level Memphis Center
11:30AM 36.3019 -94.3492 268° West 374 430 38,000  Level Memphis Center
11:31AM 36.2978 -94.4783 268° West 374 430 38,000  Level Memphis Center
11:32AM 36.2931 -94.6067 267° West 373 429 38,000  Level Memphis Center
11:33AM 36.2908 -94.7342 269° West 372 428 38,000  Level Kansas City Center
11:34AM 36.2875 -94.8622 268° West 371 427 38,000  Level Kansas City Center
11:35AM 36.2833 -94.9908 268° West 371 427 38,000  Level Kansas City Center
11:36AM 36.2778 -95.1331 267° West 372 428 38,000  Level Kansas City Center
11:37AM 36.2728 -95.2614 267° West 373 429 38,000  Level Kansas City Center
11:38AM 36.2667 -95.3919 267° West 379 436 38,000  Level Kansas City Center
11:39AM 36.2636 -95.5222 268° West 380 437 38,000  Level Kansas City Center
11:40AM 36.2589 -95.6497 267° West 374 430 38,000  Level Kansas City Center
11:41AM 36.2528 -95.8025 90° East 375 432 38,000  Level Kansas City Center
11:41AM 36.2528 -95.8025 267° West 375 432 38,000  Level Kansas City Center
11:42AM 36.2478 -95.9314 267° West 375 432 38,000  Level Kansas City Center
11:42AM 36.2478 -95.9314 267° West 375 432 38,000  Level Kansas City Center
11:43AM 36.2419 -96.0611 267° West 375 432 38,000  Level Kansas City Center
11:43AM 36.2419 -96.0611 267° West 375 432 38,000  Level Kansas City Center
11:44AM 36.2364 -96.1903 267° West 375 432 38,000  Level Kansas City Center
11:44AM 36.2364 -96.1903 267° West 375 432 38,000  Level Kansas City Center
11:45AM 36.2322 -96.3189 268° West 373 429 38,000  Level Kansas City Center
11:45AM 36.2322 -96.3189 268° West 373 429 38,000  Level Kansas City Center
11:47AM 36.2280 -96.5009 268° West  Level FlightAware Approximate
11:54AM 36.2041 -97.3692 268° West  Level FlightAware Approximate
11:55AM 36.2002 -97.4931 268° West  Level FlightAware Approximate
11:56AM 36.1937 -97.6172 266° West  Level FlightAware Approximate
11:57AM 36.1870 -97.7410 266° West  Level FlightAware Approximate
11:58AM 36.1802 -97.8648 266° West  Level FlightAware Approximate
11:59AM 36.1732 -97.9885 266° West  Level FlightAware Approximate
12:00PM 36.1661 -98.1122 266° West  Level FlightAware Approximate
12:01PM 36.1589 -98.2359 266° West  Level FlightAware Approximate
12:02PM 36.1515 -98.3596 266° West  Level FlightAware Approximate
12:03PM 36.1440 -98.4833 266° West  Level FlightAware Approximate
12:04PM 36.1364 -98.6069 266° West  Level FlightAware Approximate
12:05PM 36.1287 -98.7305 266° West  Level FlightAware Approximate
12:06PM 36.1208 -98.8541 266° West  Level FlightAware Approximate
12:07PM 36.1128 -98.9777 265° West  Level FlightAware Approximate
12:08PM 36.1047 -99.1012 265° West  Level FlightAware Approximate
12:09PM 36.0964 -99.2247 265° West  Level FlightAware Approximate
12:10PM 36.0880 -99.3482 265° West  Level FlightAware Approximate
12:11PM 36.0792 -99.4716 265° West  Level FlightAware Approximate
12:12PM 36.0699 -99.5949 265° West  Level FlightAware Approximate
12:13PM 36.0604 -99.7183 265° West  Level FlightAware Approximate
12:14PM 36.0507 -99.8416 265° West  Level FlightAware Approximate
12:15PM 36.0410 -99.9648 264° West  Level FlightAware Approximate
12:16PM 36.0311 -100.0880 264° West  Level FlightAware Approximate
12:17PM 36.0211 -100.2112 264° West  Level FlightAware Approximate
12:18PM 36.0110 -100.3344 264° West  Level FlightAware Approximate
12:19PM 36.0008 -100.4575 264° West  Level FlightAware Approximate
12:20PM 35.9913 -100.5807 265° West  Level FlightAware Approximate
12:21PM 35.9817 -100.7039 265° West  Level FlightAware Approximate
12:22PM 35.9720 -100.8271 264° West  Level FlightAware Approximate
12:23PM 35.9622 -100.9502 264° West  Level FlightAware Approximate
12:24PM 35.9523 -101.0733 264° West  Level FlightAware Approximate
12:25PM 35.9422 -101.1963 264° West  Level FlightAware Approximate
12:26PM 35.9321 -101.3194 264° West  Level FlightAware Approximate
12:27PM 35.9217 -101.4424 264° West  Level FlightAware Approximate
12:28PM 35.9113 -101.5653 264° West  Level FlightAware Approximate
12:29PM 35.9008 -101.6883 264° West  Level FlightAware Approximate
12:30PM 35.8901 -101.8112 264° West  Level FlightAware Approximate
12:31PM 35.8793 -101.9340 264° West  Level FlightAware Approximate
12:32PM 35.8683 -102.0569 264° West  Level FlightAware Approximate
12:33PM 35.8573 -102.1797 264° West  Level FlightAware Approximate
12:34PM 35.8461 -102.3024 264° West  Level FlightAware Approximate
12:35PM 35.8348 -102.4252 264° West  Level FlightAware Approximate
12:36PM 35.8233 -102.5479 263° West  Level FlightAware Approximate
12:37PM 35.8118 -102.6705 263° West  Level FlightAware Approximate
12:38PM 35.8001 -102.7931 263° West  Level FlightAware Approximate
12:39PM 35.7883 -102.9157 263° West  Level FlightAware Approximate
12:40PM 35.7763 -103.0383 263° West  Level FlightAware Approximate
12:41PM 35.7642 -103.1608 263° West  Level FlightAware Approximate
12:42PM 35.7520 -103.2833 263° West  Level FlightAware Approximate
12:43PM 35.7397 -103.4057 263° West  Level FlightAware Approximate
12:44PM 35.7272 -103.5281 263° West  Level FlightAware Approximate
12:45PM 35.7146 -103.6505 263° West  Level FlightAware Approximate
12:46PM 35.7019 -103.7728 263° West  Level FlightAware Approximate
12:47PM 35.6891 -103.8951 263° West  Level FlightAware Approximate
12:48PM 35.6761 -104.0173 263° West  Level FlightAware Approximate
12:49PM 35.6630 -104.1395 263° West  Level FlightAware Approximate
12:50PM 35.6498 -104.2617 262° West  Level FlightAware Approximate
12:51PM 35.6365 -104.3838 262° West  Level FlightAware Approximate
12:52PM 35.6230 -104.5059 262° West  Level FlightAware Approximate
12:53PM 35.6095 -104.6279 262° West  Level FlightAware Approximate
12:54PM 35.5958 -104.7499 262° West  Level FlightAware Approximate
12:55PM 35.5820 -104.8718 262° West  Level FlightAware Approximate
12:56PM 35.5680 -104.9938 262° West  Level FlightAware Approximate
12:57PM 35.5539 -105.1156 262° West  Level FlightAware Approximate
12:58PM 35.5397 -105.2374 262° West  Level FlightAware Approximate
12:59PM 35.5254 -105.3592 262° West  Level FlightAware Approximate
01:00PM 35.5113 -105.4810 262° West  Level FlightAware Approximate
01:01PM 35.4975 -105.6028 262° West  Level FlightAware Approximate
01:02PM 35.4836 -105.7246 262° West  Level FlightAware Approximate
01:03PM 35.4695 -105.8464 262° West  Level FlightAware Approximate
01:04PM 35.4553 -105.9681 262° West  Level FlightAware Approximate
01:05PM 35.4411 -106.0897 262° West  Level FlightAware Approximate
01:06PM 35.4266 -106.2113 262° West  Level FlightAware Approximate
01:07PM 35.4121 -106.3329 262° West  Level FlightAware Approximate
01:08PM 35.3972 -106.4544 261° West  Level FlightAware Approximate
01:09PM 35.3812 -106.5757 261° West  Level FlightAware Approximate
01:10PM 35.3651 -106.6969 261° West  Level FlightAware Approximate
01:11PM 35.3489 -106.8180 261° West  Level FlightAware Approximate
01:12PM 35.3325 -106.9391 260° West  Level FlightAware Approximate
01:13PM 35.3167 -107.0601 270° West  Level FlightAware Approximate
01:14PM 35.3050 -107.1813 257° West  Level FlightAware Approximate
01:15PM 35.2832 -107.3010 260° West  Level FlightAware Approximate
01:16PM 35.2663 -107.4219 260° West  Level FlightAware Approximate
01:17PM 35.2492 -107.5427 260° West  Level FlightAware Approximate
01:18PM 35.2320 -107.6635 260° West  Level FlightAware Approximate
01:19PM 35.2147 -107.7843 260° West  Level FlightAware Approximate
01:20PM 35.1973 -107.9049 260° West  Level FlightAware Approximate
01:21PM 35.1797 -108.0256 260° West  Level FlightAware Approximate
01:22PM 35.1621 -108.1461 260° West  Level FlightAware Approximate
01:23PM 35.1443 -108.2667 260° West  Level FlightAware Approximate
01:24PM 35.1264 -108.3871 260° West  Level FlightAware Approximate
01:25PM 35.1084 -108.5076 260° West  Level FlightAware Approximate
01:26PM 35.0903 -108.6279 260° West  Level FlightAware Approximate
01:27PM 35.0720 -108.7482 260° West  Level FlightAware Approximate
01:28PM 35.0402 -108.8637 248° West  Level FlightAware Approximate
01:29PM 35.0028 -108.9771 248° West  Level FlightAware Approximate
01:30PM 34.9652 -109.0904 248° West  Level FlightAware Approximate
01:31PM 34.9276 -109.2036 248° West  Level FlightAware Approximate
01:32PM 34.8898 -109.3167 248° West  Level FlightAware Approximate
01:33PM 34.8519 -109.4297 248° West  Level FlightAware Approximate
01:34PM 34.8140 -109.5425 248° West  Level FlightAware Approximate
01:35PM 34.7751 -109.6549 245° Southwest  Level FlightAware Approximate
01:36PM 34.7327 -109.7653 245° Southwest  Level FlightAware Approximate
01:37PM 34.6904 -109.8757 246° West  Level FlightAware Approximate
01:38PM 34.6488 -109.9865 245° Southwest  Level FlightAware Approximate
01:39PM 34.6066 -110.0968 245° Southwest  Level FlightAware Approximate
01:40PM 34.5642 -110.2070 245° Southwest  Level FlightAware Approximate
01:41PM 34.5218 -110.3171 245° Southwest  Level FlightAware Approximate
01:42PM 34.4795 -110.4273 246° West  Level FlightAware Approximate
01:43PM 34.4392 -110.5384 246° West  Level FlightAware Approximate
01:44PM 34.3988 -110.6495 246° West  Level FlightAware Approximate
01:45PM 34.3584 -110.7605 246° West  Level FlightAware Approximate
01:46PM 34.2939 -110.8425 231° Southwest  Level FlightAware Approximate
01:47PM 34.2308 -110.9367 228° Southwest  Level FlightAware Approximate
01:48PM 34.1607 -111.0227 220° Southwest  Level FlightAware Approximate
01:49PM 34.0878 -111.1052 228° Southwest  Level FlightAware Approximate
01:50PM 34.0207 -111.1949 228° Southwest  Level FlightAware Approximate
01:51PM 33.9536 -111.2845 228° Southwest  Level FlightAware Approximate
01:52PM 33.8863 -111.3739 228° Southwest  Level FlightAware Approximate
01:53PM 33.8301 -111.4731 239° Southwest  Level FlightAware Approximate
01:54PM 33.7785 -111.5764 239° Southwest  Level FlightAware Approximate
01:55PM 33.7269 -111.6796 239° Southwest  Level FlightAware Approximate
01:56PM 33.6731 -111.7811 237° Southwest  Level FlightAware Approximate
01:57PM 33.6187 -111.8821 237° Southwest  Level FlightAware Approximate
01:58PM 33.5607 -111.9787 239° Southwest  Level FlightAware Approximate
01:59PM 33.5167 -112.0842 270° West  Level FlightAware Approximate
02:00PM 33.5167 -112.2043 270° West  Level FlightAware Approximate
02:01PM 33.5091 -112.2773 112° Southeast  Level FlightAware Approximate
02:02PM 33.4740 -112.1700 103° East  Level FlightAware Approximate
02:03PM 33.4430 -112.0575 116° Southeast  Level FlightAware Approximate
02:04PM 33.4343 -112.0116 90° East  Level Estimated
02:05PM 33.4343 -112.0116 90° East  Level Estimated
02:06PM 33.4343 -112.0116 90° East  Level Estimated
02:07PM 33.4343 -112.0116 90° East  Level Estimated
02:08PM 33.4343 -112.0116 90° East  Level Estimated
02:09PM 33.4343 -112.0116 90° East  Level Estimated
02:10PM 33.4343 -112.0116 90° East  Level Estimated
02:11PM 33.4343 -112.0116 90° East  Level Estimated
02:12PM 33.4343 -112.0116 90° East  Level Estimated
02:13PM 33.4343 -112.0116 90° East  Level Estimated
02:14PM 33.4343 -112.0116 90° East  Level Estimated
02:15PM 33.4343 -112.0116 90° East  Level Estimated